createdAt,value
2022-08-29T00:00:50.649Z,4.50
2022-08-29T00:03:18.437Z,4.43
2022-08-29T00:05:50.074Z,4.45
2022-08-29T00:08:17.230Z,4.78
2022-08-29T00:10:44.054Z,3.83
2022-08-29T00:13:12.765Z,4.38
2022-08-29T00:15:42.240Z,3.92
2022-08-29T00:18:14.072Z,3.83
2022-08-29T00:20:42.143Z,4.00
2022-08-29T00:23:10.091Z,4.00
2022-08-29T00:25:37.212Z,4.68
2022-08-29T00:28:04.865Z,4.40
2022-08-29T00:30:33.084Z,4.18
2022-08-29T00:32:59.828Z,4.50
2022-08-29T00:35:30.409Z,3.75
2022-08-29T00:37:58.741Z,3.97
2022-08-29T00:40:32.987Z,4.57
2022-08-29T00:43:00.348Z,3.83
2022-08-29T00:45:27.602Z,3.85
2022-08-29T00:47:58.897Z,3.97
2022-08-29T00:50:34.254Z,3.67
2022-08-29T00:53:02.422Z,3.90
2022-08-29T00:55:32.619Z,4.28
2022-08-29T00:58:04.716Z,3.90
2022-08-29T01:00:32.361Z,3.88
2022-08-29T01:02:59.229Z,4.10
2022-08-29T01:05:26.899Z,3.90
2022-08-29T01:07:53.723Z,3.53
2022-08-29T01:10:40.817Z,3.45
2022-08-29T01:13:10.005Z,3.38
2022-08-29T01:15:39.767Z,3.70
2022-08-29T01:18:08.690Z,3.28
2022-08-29T01:20:54.017Z,3.78
2022-08-29T01:23:41.044Z,3.50
2022-08-29T01:26:10.102Z,3.40
2022-08-29T01:28:41.657Z,3.30
2022-08-29T01:31:31.783Z,3.33
2022-08-29T01:34:04.648Z,3.50
2022-08-29T01:36:55.452Z,3.63
2022-08-29T01:39:26.600Z,4.18
2022-08-29T01:41:53.653Z,3.35
2022-08-29T01:44:22.676Z,3.80
2022-08-29T01:46:52.007Z,3.08
2022-08-29T01:49:20.609Z,3.50
2022-08-29T01:51:47.507Z,3.55
2022-08-29T01:54:15.785Z,3.70
2022-08-29T01:56:45.693Z,3.65
2022-08-29T01:59:20.805Z,3.50
2022-08-29T02:02:00.675Z,3.53
2022-08-29T02:04:27.535Z,3.55
2022-08-29T02:06:56.141Z,3.70
2022-08-29T02:09:24.290Z,3.60
2022-08-29T02:11:54.666Z,4.00
2022-08-29T02:14:22.207Z,3.90
2022-08-29T02:16:49.566Z,4.00
2022-08-29T02:19:16.714Z,4.00
2022-08-29T02:21:44.386Z,3.80
2022-08-29T02:24:25.047Z,3.55
2022-08-29T02:26:54.269Z,3.80
2022-08-29T02:29:21.147Z,3.40
2022-08-29T02:31:48.451Z,3.50
2022-08-29T02:34:16.516Z,4.18
2022-08-29T02:36:44.519Z,3.53
2022-08-29T02:39:11.741Z,3.63
2022-08-29T02:41:38.792Z,3.58
2022-08-29T02:44:05.873Z,3.70
2022-08-29T02:46:33.185Z,4.00
2022-08-29T02:49:00.537Z,4.18
2022-08-29T02:51:31.244Z,3.65
2022-08-29T02:53:59.655Z,4.05
2022-08-29T02:56:27.641Z,4.15
2022-08-29T02:58:54.440Z,3.83
2022-08-29T03:01:22.651Z,3.80
2022-08-29T03:03:50.639Z,4.28
2022-08-29T03:06:19.424Z,4.15
2022-08-29T03:08:46.672Z,4.30
2022-08-29T03:11:14.087Z,4.15
2022-08-29T03:13:44.096Z,3.85
2022-08-29T03:16:12.308Z,4.40
2022-08-29T03:18:39.453Z,3.70
2022-08-29T03:21:13.651Z,4.07
2022-08-29T03:23:40.420Z,4.20
2022-08-29T03:26:07.831Z,4.00
2022-08-29T03:28:34.651Z,4.20
2022-08-29T03:31:01.483Z,4.28
2022-08-29T03:33:28.360Z,4.20
2022-08-29T03:35:55.197Z,4.25
2022-08-29T03:38:22.758Z,4.07
2022-08-29T03:40:49.590Z,4.57
2022-08-29T03:43:16.346Z,4.38
2022-08-29T03:45:43.196Z,4.45
2022-08-29T03:48:10.051Z,4.47
2022-08-29T03:50:36.833Z,4.65
2022-08-29T03:53:03.790Z,4.32
2022-08-29T03:55:30.556Z,4.40
2022-08-29T03:57:57.325Z,4.60
2022-08-29T04:00:24.353Z,4.25
2022-08-29T04:02:53.750Z,4.50
2022-08-29T04:05:20.836Z,4.38
2022-08-29T04:07:54.891Z,4.13
2022-08-29T04:10:25.302Z,4.32
2022-08-29T04:12:54.689Z,4.10
2022-08-29T04:15:23.489Z,4.65
2022-08-29T04:17:54.132Z,4.60
2022-08-29T04:20:25.307Z,4.45
2022-08-29T04:22:54.323Z,4.55
2022-08-29T04:25:22.368Z,4.47
2022-08-29T04:27:49.636Z,4.43
2022-08-29T04:30:19.346Z,4.32
2022-08-29T04:32:46.482Z,4.65
2022-08-29T04:35:15.659Z,4.70
2022-08-29T04:37:44.054Z,4.70
2022-08-29T04:40:15.421Z,4.53
2022-08-29T04:42:42.593Z,5.45
2022-08-29T04:45:12.372Z,4.60
2022-08-29T04:47:39.852Z,5.15
2022-08-29T04:50:08.793Z,4.47
2022-08-29T04:52:37.005Z,5.20
2022-08-29T04:55:05.339Z,4.22
2022-08-29T04:57:32.064Z,4.93
2022-08-29T04:59:59.955Z,4.70
2022-08-29T05:02:28.379Z,4.57
2022-08-29T05:04:56.929Z,4.55
2022-08-29T05:07:25.549Z,4.97
2022-08-29T05:10:01.267Z,4.72
2022-08-29T05:12:30.419Z,5.00
2022-08-29T05:14:57.673Z,5.50
2022-08-29T05:17:25.523Z,4.55
2022-08-29T05:19:52.986Z,5.55
2022-08-29T05:22:21.104Z,5.10
2022-08-29T05:24:48.910Z,5.50
2022-08-29T05:27:54.909Z,4.90
2022-08-29T05:30:35.100Z,5.13
2022-08-29T05:33:13.000Z,5.50
2022-08-29T05:36:09.459Z,5.25
2022-08-29T05:38:36.371Z,5.75
2022-08-29T05:48:53.399Z,4.88
2022-08-29T05:51:47.630Z,5.80
2022-08-29T05:54:55.632Z,5.65
2022-08-29T05:57:58.451Z,6.10
2022-08-29T06:00:25.668Z,5.85
2022-08-29T06:07:25.545Z,6.40
2022-08-29T06:29:11.040Z,6.80
2022-08-29T06:31:39.053Z,7.57
2022-08-29T06:42:04.252Z,6.95
2022-08-29T06:45:56.885Z,7.20
2022-08-29T06:49:07.139Z,7.28
2022-08-29T06:52:24.164Z,7.43
2022-08-29T06:55:42.121Z,7.22
2022-08-29T06:59:11.632Z,7.53
2022-08-29T07:02:32.398Z,6.07
2022-08-29T07:05:25.154Z,5.72
2022-08-29T07:14:57.836Z,7.35
2022-08-29T07:18:30.766Z,7.07
2022-08-29T07:21:20.090Z,7.07
2022-08-29T07:23:55.581Z,6.88
2022-08-29T07:26:38.978Z,6.53
2022-08-29T07:30:03.003Z,6.65
2022-08-29T07:36:57.738Z,7.70
2022-08-29T07:40:02.178Z,6.90
2022-08-29T07:42:37.623Z,6.70
2022-08-29T07:45:20.549Z,5.95
2022-08-29T07:52:23.380Z,5.63
2022-08-29T07:54:51.582Z,6.13
2022-08-29T07:58:31.524Z,5.93
2022-08-29T08:08:54.747Z,5.70
2022-08-29T08:11:32.186Z,5.63
2022-08-29T08:14:01.723Z,5.95
2022-08-29T08:16:35.621Z,5.30
2022-08-29T08:19:04.672Z,5.30
2022-08-29T08:22:34.465Z,5.00
2022-08-29T08:28:19.093Z,4.47
2022-08-29T08:30:46.061Z,4.00
2022-08-29T08:33:22.218Z,4.20
2022-08-29T08:36:07.042Z,4.55
2022-08-29T08:39:05.463Z,4.15
2022-08-29T08:41:51.144Z,4.13
2022-08-29T08:48:49.271Z,3.97
2022-08-29T08:57:14.945Z,3.72
2022-08-29T09:14:38.129Z,3.20
2022-08-29T09:17:46.054Z,3.22
2022-08-29T09:20:27.283Z,3.67
2022-08-29T09:26:49.921Z,3.15
2022-08-29T09:29:45.401Z,3.28
2022-08-29T09:41:47.400Z,3.20
2022-08-29T09:44:51.304Z,3.60
2022-08-29T09:47:58.893Z,3.22
2022-08-29T09:50:37.258Z,3.00
2022-08-29T09:53:24.616Z,3.22
2022-08-29T09:56:32.532Z,2.90
2022-08-29T09:59:14.770Z,3.00
2022-08-29T10:01:56.774Z,2.63
2022-08-29T10:04:45.293Z,2.83
2022-08-29T10:12:44.358Z,3.10
2022-08-29T10:18:31.843Z,3.15
2022-08-29T10:21:04.570Z,3.15
2022-08-29T10:23:47.472Z,2.75
2022-08-29T10:34:38.207Z,3.28
2022-08-29T10:46:03.677Z,3.10
2022-08-29T10:55:42.328Z,3.05
2022-08-29T10:59:25.075Z,2.72
2022-08-29T11:02:43.598Z,2.97
2022-08-29T11:05:29.395Z,2.53
2022-08-29T11:09:07.460Z,2.67
2022-08-29T11:12:25.431Z,2.80
2022-08-29T11:15:08.097Z,2.92
2022-08-29T11:18:06.949Z,2.38
2022-08-29T11:25:15.675Z,2.90
2022-08-29T11:28:20.369Z,2.90
2022-08-29T11:31:04.717Z,2.97
2022-08-29T11:34:08.958Z,3.38
2022-08-29T11:36:51.160Z,3.00
2022-08-29T11:39:29.867Z,3.28
2022-08-29T11:42:12.327Z,3.20
2022-08-29T11:44:55.096Z,3.75
2022-08-29T11:47:45.872Z,3.60
2022-08-29T11:50:27.482Z,2.53
2022-08-29T11:53:22.561Z,3.10
2022-08-29T11:56:19.447Z,3.20
2022-08-29T11:58:48.612Z,2.92
2022-08-29T12:01:42.155Z,3.00
2022-08-29T12:16:01.671Z,3.10
2022-08-29T12:19:26.636Z,3.25
2022-08-29T12:27:20.289Z,3.20
2022-08-29T12:30:56.872Z,2.70
2022-08-29T12:38:14.408Z,3.40
2022-08-29T12:45:39.364Z,2.72
2022-08-29T12:57:04.236Z,2.80
2022-08-29T13:14:51.759Z,2.85
2022-08-29T13:17:34.794Z,2.83
2022-08-29T13:27:41.364Z,2.15
2022-08-29T13:30:33.310Z,2.28
2022-08-29T13:33:03.923Z,2.60
2022-08-29T13:36:40.701Z,2.40
2022-08-29T13:39:25.383Z,2.55
2022-08-29T13:42:41.351Z,2.50
2022-08-29T13:45:29.605Z,2.67
2022-08-29T13:48:45.214Z,2.40
2022-08-29T13:54:44.837Z,2.38
2022-08-29T13:57:31.605Z,2.80
2022-08-29T14:00:32.106Z,2.50
2022-08-29T14:06:38.364Z,2.60
2022-08-29T14:09:17.975Z,2.45
2022-08-29T14:11:50.865Z,2.30
2022-08-29T14:14:18.874Z,2.67
2022-08-29T14:16:53.804Z,2.45
2022-08-29T14:19:31.513Z,2.67
2022-08-29T14:22:02.141Z,2.30
2022-08-29T14:25:03.145Z,2.53
2022-08-29T14:27:58.765Z,2.42
2022-08-29T14:30:43.134Z,2.40
2022-08-29T14:33:40.612Z,2.03
2022-08-29T14:36:08.360Z,2.50
2022-08-29T14:38:44.912Z,2.33
2022-08-29T14:41:26.858Z,2.53
2022-08-29T14:44:25.764Z,2.47
2022-08-29T14:46:52.660Z,2.50
2022-08-29T14:49:27.824Z,2.60
2022-08-29T14:54:52.213Z,2.45
2022-08-29T14:57:28.454Z,2.30
2022-08-29T15:01:09.632Z,2.20
2022-08-29T15:03:36.758Z,2.38
2022-08-29T15:10:42.665Z,2.20
2022-08-29T15:13:17.115Z,2.00
2022-08-29T15:16:04.267Z,2.50
2022-08-29T15:22:44.799Z,2.42
2022-08-29T15:25:26.117Z,2.40
2022-08-29T15:29:02.053Z,8.93
2022-08-29T15:31:31.673Z,2.65
2022-08-29T15:34:11.340Z,2.30
2022-08-29T15:36:48.680Z,2.42
2022-08-29T15:39:32.594Z,2.53
2022-08-29T15:42:11.097Z,2.90
2022-08-29T15:44:53.558Z,2.35
2022-08-29T15:48:14.391Z,2.30
2022-08-29T15:51:23.364Z,2.53
2022-08-29T15:54:32.007Z,2.15
2022-08-29T15:57:22.231Z,2.70
2022-08-29T16:00:37.067Z,2.80
2022-08-29T16:03:38.329Z,2.17
2022-08-29T16:06:17.177Z,2.10
2022-08-29T16:08:46.131Z,2.50
2022-08-29T16:11:38.701Z,2.83
2022-08-29T16:17:04.555Z,2.50
2022-08-29T16:19:42.390Z,2.55
2022-08-29T16:22:10.389Z,2.30
2022-08-29T16:24:42.639Z,2.33
2022-08-29T16:27:09.807Z,2.22
2022-08-29T16:29:44.501Z,2.30
2022-08-29T16:33:31.742Z,2.63
2022-08-29T16:36:10.955Z,2.45
2022-08-29T16:42:12.559Z,2.08
2022-08-29T16:44:48.750Z,2.40
2022-08-29T16:47:56.735Z,2.17
2022-08-29T16:50:34.398Z,2.20
2022-08-29T16:57:17.674Z,2.78
2022-08-29T17:04:25.806Z,2.50
2022-08-29T17:07:08.722Z,2.63
2022-08-29T17:09:44.783Z,2.70
2022-08-29T17:12:21.687Z,2.42
2022-08-29T17:14:55.065Z,2.20
2022-08-29T17:17:44.181Z,2.65
2022-08-29T17:20:11.868Z,2.35
2022-08-29T17:22:46.009Z,2.97
2022-08-29T17:26:08.503Z,2.28
2022-08-29T17:29:35.667Z,2.33
2022-08-29T17:32:09.508Z,2.50
2022-08-29T17:34:38.754Z,2.65
2022-08-29T17:37:22.431Z,2.45
2022-08-29T17:40:36.989Z,2.60
2022-08-29T17:44:19.992Z,2.50
2022-08-29T17:50:00.086Z,2.80
2022-08-29T17:53:21.937Z,2.47
2022-08-29T17:58:39.924Z,3.10
2022-08-29T18:01:16.013Z,2.70
2022-08-29T18:03:52.671Z,3.03
2022-08-29T18:06:46.706Z,2.33
2022-08-29T18:09:30.369Z,2.53
2022-08-29T18:12:11.537Z,2.80
2022-08-29T18:15:11.593Z,2.80
2022-08-29T18:17:59.575Z,2.63
2022-08-29T18:20:31.548Z,2.70
2022-08-29T18:23:53.215Z,2.75
2022-08-29T18:26:22.839Z,2.72
2022-08-29T18:29:04.257Z,2.45
2022-08-29T18:32:14.975Z,2.70
2022-08-29T18:34:42.010Z,3.55
2022-08-29T18:40:23.828Z,2.90
2022-08-29T18:44:08.652Z,3.05
2022-08-29T18:50:09.018Z,2.92
2022-08-29T18:52:45.968Z,2.90
2022-08-29T18:55:15.743Z,2.80
2022-08-29T18:57:52.919Z,2.80
2022-08-29T19:00:26.902Z,2.40
2022-08-29T19:03:32.387Z,2.70
2022-08-29T19:06:11.640Z,2.55
2022-08-29T19:08:49.705Z,2.78
2022-08-29T19:12:21.714Z,2.97
2022-08-29T19:14:52.161Z,2.65
2022-08-29T19:17:19.186Z,2.22
2022-08-29T19:20:25.978Z,2.60
2022-08-29T19:23:24.211Z,2.40
2022-08-29T19:29:40.305Z,2.72
2022-08-29T19:32:08.237Z,2.60
2022-08-29T19:34:47.740Z,2.65
2022-08-29T19:37:43.268Z,2.80
2022-08-29T19:40:42.549Z,2.53
2022-08-29T19:43:28.447Z,2.72
2022-08-29T19:46:49.843Z,2.65
2022-08-29T19:50:09.960Z,2.78
2022-08-29T19:57:14.602Z,3.85
2022-08-29T20:03:35.834Z,3.00
2022-08-29T20:06:15.161Z,2.80
2022-08-29T20:12:55.169Z,2.63
2022-08-29T20:15:26.763Z,3.05
2022-08-29T20:18:02.598Z,2.70
2022-08-29T20:21:26.361Z,3.00
2022-08-29T20:24:42.158Z,2.85
2022-08-29T20:27:09.244Z,2.73
2022-08-29T20:37:27.416Z,2.58
2022-08-29T20:40:35.160Z,2.90
2022-08-29T20:43:08.494Z,2.75
2022-08-29T20:45:38.643Z,2.90
2022-08-29T20:50:36.063Z,2.80
2022-08-29T20:52:40.418Z,2.42
2022-08-29T20:55:36.573Z,3.20
2022-08-29T20:58:38.965Z,3.35
2022-08-29T21:01:44.316Z,3.45
2022-08-29T21:08:22.537Z,3.00
2022-08-29T21:11:20.808Z,2.95
2022-08-29T21:13:53.304Z,2.63
2022-08-29T21:16:30.107Z,2.58
2022-08-29T21:18:57.116Z,3.55
2022-08-29T21:21:25.021Z,3.20
2022-08-29T21:23:52.080Z,2.85
2022-08-29T21:26:18.999Z,2.83
2022-08-29T21:28:47.251Z,3.15
2022-08-29T21:31:15.460Z,3.13
2022-08-29T21:33:44.958Z,3.38
2022-08-29T21:36:14.641Z,3.15
2022-08-29T21:38:41.517Z,3.30
2022-08-29T21:41:10.132Z,3.20
2022-08-29T21:43:37.411Z,3.40
2022-08-29T21:46:17.080Z,3.10
2022-08-29T21:48:44.140Z,3.58
2022-08-29T21:51:12.923Z,3.25
2022-08-29T21:53:41.645Z,3.40
2022-08-29T21:56:08.679Z,3.05
2022-08-29T21:58:35.507Z,3.25
2022-08-29T22:01:02.310Z,3.30
2022-08-29T22:03:29.100Z,3.50
2022-08-29T22:05:56.170Z,3.03
2022-08-29T22:08:22.929Z,2.97
2022-08-29T22:10:50.014Z,3.38
2022-08-29T22:13:17.263Z,2.90
2022-08-29T22:16:03.079Z,2.55
2022-08-29T22:18:29.894Z,2.90
2022-08-29T22:21:00.372Z,2.75
2022-08-29T22:23:27.238Z,2.70
2022-08-29T22:25:54.107Z,2.85
2022-08-29T22:28:21.321Z,2.63
2022-08-29T22:30:48.796Z,2.90
2022-08-29T22:33:16.549Z,2.75
2022-08-29T22:35:43.728Z,2.85
2022-08-29T22:38:10.557Z,3.08
2022-08-29T22:40:37.455Z,2.72
2022-08-29T22:43:04.822Z,3.08
2022-08-29T22:45:32.310Z,3.50
2022-08-29T22:47:59.137Z,3.28
2022-08-29T22:50:26.105Z,3.10
2022-08-29T22:52:57.922Z,3.15
2022-08-29T22:57:51.327Z,3.38
2022-08-29T23:00:20.705Z,2.80
2022-08-29T23:02:48.412Z,3.35
2022-08-29T23:05:18.006Z,3.20
2022-08-29T23:07:45.384Z,2.97
2022-08-29T23:10:14.167Z,3.30
2022-08-29T23:12:41.145Z,3.00
2022-08-29T23:15:11.663Z,3.47
2022-08-29T23:17:38.399Z,2.97
2022-08-29T23:20:07.032Z,2.88
2022-08-29T23:22:33.826Z,3.35
2022-08-29T23:25:00.770Z,3.25
2022-08-29T23:27:31.934Z,3.17
2022-08-29T23:30:00.617Z,3.38
2022-08-29T23:32:28.091Z,3.90
2022-08-29T23:34:55.131Z,3.28
2022-08-29T23:37:21.907Z,3.55
2022-08-29T23:39:48.659Z,3.63
2022-08-29T23:42:15.432Z,3.17
2022-08-29T23:44:42.188Z,3.72
2022-08-29T23:47:09.234Z,3.00
2022-08-29T23:49:36.071Z,3.60
2022-08-29T23:52:04.420Z,3.17
2022-08-29T23:54:31.529Z,3.78
2022-08-29T23:56:58.628Z,3.33
2022-08-29T23:59:44.289Z,3.38
